createdAt,value
2019-04-29T00:02:09.592Z,94.80
2019-04-29T00:04:38.038Z,94.60
2019-04-29T00:07:06.536Z,94.60
2019-04-29T00:09:34.970Z,94.80
2019-04-29T00:12:03.394Z,95.00
2019-04-29T00:14:32.208Z,94.90
2019-04-29T00:17:08.268Z,95.20
2019-04-29T00:19:54.385Z,94.70
2019-04-29T00:22:22.876Z,94.90
2019-04-29T00:24:51.314Z,95.00
2019-04-29T00:27:19.742Z,94.10
2019-04-29T00:29:48.195Z,94.30
2019-04-29T00:32:16.678Z,94.50
2019-04-29T00:34:45.141Z,94.40
2019-04-29T00:37:27.210Z,94.50
2019-04-29T00:40:13.763Z,95.10
2019-04-29T00:43:01.948Z,94.10
2019-04-29T00:45:30.521Z,93.80
2019-04-29T00:47:58.938Z,94.50
2019-04-29T00:50:27.390Z,94.70
2019-04-29T00:52:55.805Z,94.50
2019-04-29T00:55:28.980Z,94.30
2019-04-29T00:57:57.390Z,95.00
2019-04-29T01:00:39.463Z,94.90
2019-04-29T01:03:08.031Z,95.10
2019-04-29T01:05:37.223Z,93.50
2019-04-29T01:08:05.649Z,93.90
2019-04-29T01:10:34.123Z,94.80
2019-04-29T01:13:21.992Z,95.40
2019-04-29T01:15:50.432Z,93.80
2019-04-29T01:18:18.849Z,94.30
2019-04-29T01:20:47.372Z,94.60
2019-04-29T01:23:15.794Z,94.20
2019-04-29T01:25:45.913Z,94.30
2019-04-29T01:28:15.966Z,94.10
2019-04-29T01:30:59.162Z,94.80
2019-04-29T01:33:27.601Z,94.90
2019-04-29T01:36:09.967Z,94.20
2019-04-29T01:38:38.459Z,94.30
2019-04-29T01:41:08.557Z,94.30
2019-04-29T01:43:41.413Z,94.60
2019-04-29T01:46:09.907Z,94.90
2019-04-29T01:48:38.352Z,95.40
2019-04-29T01:51:06.800Z,95.40
2019-04-29T01:53:35.225Z,95.10
2019-04-29T01:56:03.700Z,95.10
2019-04-29T01:58:32.137Z,94.90
2019-04-29T02:01:00.591Z,95.00
2019-04-29T02:03:34.999Z,95.20
2019-04-29T02:06:05.297Z,95.60
2019-04-29T02:08:33.715Z,95.40
2019-04-29T02:11:02.182Z,94.60
2019-04-29T02:13:30.620Z,95.50
2019-04-29T02:16:48.911Z,95.60
2019-04-29T02:19:17.328Z,94.70
2019-04-29T02:22:12.447Z,94.50
2019-04-29T02:24:45.555Z,95.20
2019-04-29T02:27:17.211Z,94.60
2019-04-29T02:29:47.360Z,94.60
2019-04-29T02:32:15.819Z,95.00
2019-04-29T02:34:44.283Z,94.90
2019-04-29T02:37:14.402Z,94.50
2019-04-29T02:39:50.273Z,94.40
2019-04-29T02:42:36.628Z,94.60
2019-04-29T02:45:08.656Z,94.20
2019-04-29T02:47:37.104Z,94.80
2019-04-29T02:50:06.691Z,95.60
2019-04-29T02:52:35.145Z,95.80
2019-04-29T02:55:05.899Z,95.10
2019-04-29T02:57:38.549Z,95.40
2019-04-29T03:00:21.784Z,95.20
2019-04-29T03:02:51.897Z,94.70
2019-04-29T03:05:21.958Z,94.60
2019-04-29T03:07:50.433Z,95.50
2019-04-29T03:10:18.879Z,95.70
2019-04-29T03:12:47.345Z,95.40
2019-04-29T03:15:29.695Z,94.60
2019-04-29T03:17:58.167Z,94.80
2019-04-29T03:20:31.173Z,94.90
2019-04-29T03:23:10.515Z,95.00
2019-04-29T03:25:38.944Z,94.30
2019-04-29T03:28:07.398Z,94.20
2019-04-29T03:30:35.872Z,94.90
2019-04-29T03:33:04.324Z,95.40
2019-04-29T03:35:32.767Z,95.10
2019-04-29T03:38:01.245Z,95.50
2019-04-29T03:40:29.675Z,94.80
2019-04-29T03:42:58.112Z,95.10
2019-04-29T03:45:26.630Z,95.40
2019-04-29T03:47:55.059Z,95.60
2019-04-29T03:50:23.523Z,95.10
2019-04-29T03:52:51.964Z,95.70
2019-04-29T03:55:38.349Z,95.20
2019-04-29T03:57:50.544Z,95.30
2019-04-29T04:00:19.545Z,96.30
2019-04-29T04:02:58.658Z,95.80
2019-04-29T04:05:34.647Z,94.70
2019-04-29T04:08:13.780Z,95.50
2019-04-29T04:10:42.260Z,94.90
2019-04-29T04:13:10.698Z,95.40
2019-04-29T04:15:39.220Z,95.10
2019-04-29T04:18:15.027Z,94.20
2019-04-29T04:20:43.486Z,95.40
2019-04-29T04:23:11.930Z,94.70
2019-04-29T04:25:40.403Z,94.30
2019-04-29T04:28:08.887Z,94.30
2019-04-29T04:30:37.329Z,94.60
2019-04-29T04:33:05.769Z,94.80
2019-04-29T04:35:34.284Z,95.10
2019-04-29T04:38:02.721Z,94.70
2019-04-29T04:40:35.593Z,94.80
2019-04-29T04:43:04.074Z,95.00
2019-04-29T04:45:32.581Z,95.20
2019-04-29T04:48:00.992Z,95.00
2019-04-29T04:50:29.459Z,94.60
2019-04-29T04:52:57.903Z,94.40
2019-04-29T04:55:28.015Z,94.30
2019-04-29T04:57:56.468Z,93.70
2019-04-29T05:00:26.688Z,94.10
2019-04-29T05:03:43.740Z,93.60
2019-04-29T05:06:12.206Z,93.90
2019-04-29T05:08:40.634Z,93.40
2019-04-29T05:11:09.101Z,93.60
2019-04-29T05:13:37.554Z,93.50
2019-04-29T05:16:06.016Z,93.10
2019-04-29T05:18:34.473Z,92.90
2019-04-29T05:21:02.908Z,92.80
2019-04-29T05:23:31.349Z,92.50
2019-04-29T05:25:59.821Z,92.60
2019-04-29T05:28:28.276Z,93.20
2019-04-29T05:30:56.739Z,92.90
2019-04-29T05:33:25.155Z,93.50
2019-04-29T05:35:56.775Z,93.20
2019-04-29T05:38:32.987Z,93.60
2019-04-29T05:41:01.456Z,93.80
2019-04-29T05:43:37.541Z,94.10
2019-04-29T05:46:21.661Z,93.40
2019-04-29T05:48:49.790Z,92.80
2019-04-29T05:51:36.157Z,93.20
2019-04-29T05:54:06.236Z,92.80
2019-04-29T05:56:34.719Z,93.10
2019-04-29T05:59:03.157Z,93.10
2019-04-29T06:01:31.973Z,93.00
2019-04-29T06:04:00.414Z,93.10
2019-04-29T06:06:28.887Z,93.10
2019-04-29T06:08:57.339Z,92.70
2019-04-29T06:11:25.851Z,92.20
2019-04-29T06:13:54.294Z,92.60
2019-04-29T06:16:22.843Z,91.40
2019-04-29T06:18:59.690Z,91.00
2019-04-29T06:21:21.449Z,90.80
2019-04-29T06:23:49.893Z,91.40
2019-04-29T06:26:18.354Z,91.90
2019-04-29T06:28:46.812Z,91.50
2019-04-29T06:31:15.255Z,91.20
2019-04-29T06:33:43.688Z,90.50
2019-04-29T06:36:12.136Z,90.00
2019-04-29T06:38:40.586Z,90.00
2019-04-29T06:41:09.720Z,90.00
2019-04-29T06:43:39.296Z,89.60
2019-04-29T06:46:07.756Z,88.70
2019-04-29T06:48:36.196Z,88.30
2019-04-29T06:51:04.663Z,88.90
2019-04-29T06:53:33.093Z,89.80
2019-04-29T06:56:01.526Z,90.00
2019-04-29T06:58:32.433Z,89.00
2019-04-29T07:01:01.054Z,89.80
2019-04-29T07:03:30.200Z,90.40
2019-04-29T07:05:58.639Z,90.00
2019-04-29T07:08:27.085Z,90.10
2019-04-29T07:10:55.880Z,89.10
2019-04-29T07:13:25.655Z,88.70
2019-04-29T07:15:54.091Z,88.70
2019-04-29T07:18:22.547Z,88.70
2019-04-29T07:20:50.996Z,89.30
2019-04-29T07:23:19.478Z,90.30
2019-04-29T07:25:47.918Z,90.30
2019-04-29T07:28:18.494Z,90.90
2019-04-29T07:31:01.107Z,91.10
2019-04-29T07:33:21.828Z,91.10
2019-04-29T07:35:47.932Z,90.90
2019-04-29T07:38:16.831Z,90.70
2019-04-29T07:40:45.270Z,91.20
2019-04-29T07:43:13.728Z,90.60
2019-04-29T07:46:03.569Z,91.20
2019-04-29T07:48:28.947Z,90.90
2019-04-29T07:51:02.357Z,91.00
2019-04-29T07:53:36.689Z,91.50
2019-04-29T07:55:57.595Z,91.10
2019-04-29T07:58:27.330Z,91.90
2019-04-29T08:00:56.436Z,91.30
2019-04-29T08:03:25.027Z,90.90
2019-04-29T08:05:53.471Z,91.00
2019-04-29T08:08:22.846Z,90.30
2019-04-29T08:10:56.148Z,90.00
2019-04-29T08:13:22.027Z,90.40
2019-04-29T08:15:50.466Z,89.90
2019-04-29T08:18:18.931Z,88.90
2019-04-29T08:20:47.386Z,85.30
2019-04-29T08:23:15.867Z,85.00
2019-04-29T08:25:44.325Z,85.00
2019-04-29T08:28:12.778Z,82.40
2019-04-29T08:30:41.822Z,82.10
2019-04-29T08:33:11.965Z,79.10
2019-04-29T08:35:41.521Z,75.90
2019-04-29T08:38:09.982Z,75.30
2019-04-29T08:40:38.443Z,75.30
2019-04-29T08:46:25.581Z,75.10
2019-04-29T08:48:54.070Z,76.80
2019-04-29T08:51:22.518Z,75.90
2019-04-29T08:53:59.729Z,76.70
2019-04-29T08:56:28.175Z,71.90
2019-04-29T08:58:56.689Z,76.00
2019-04-29T09:01:29.279Z,74.90
2019-04-29T09:04:28.627Z,77.90
2019-04-29T09:07:44.424Z,76.30
2019-04-29T09:11:13.029Z,78.00
2019-04-29T09:14:12.838Z,76.80
2019-04-29T09:16:39.818Z,77.10
2019-04-29T09:19:21.748Z,77.00
2019-04-29T09:21:51.909Z,76.80
2019-04-29T09:24:20.319Z,75.90
2019-04-29T09:26:50.402Z,75.90
2019-04-29T09:29:27.838Z,75.80
2019-04-29T09:32:04.934Z,77.70
2019-04-29T09:34:33.429Z,77.10
2019-04-29T09:41:38.831Z,75.70
2019-04-29T09:44:17.486Z,76.90
2019-04-29T09:46:45.930Z,76.10
2019-04-29T09:49:52.195Z,75.60
2019-04-29T09:52:20.642Z,74.00
2019-04-29T09:54:49.130Z,73.20
2019-04-29T09:57:17.643Z,72.30
2019-04-29T10:00:00.148Z,70.50
2019-04-29T10:02:34.052Z,71.20
2019-04-29T10:05:07.158Z,73.30
2019-04-29T10:07:35.618Z,74.10
2019-04-29T10:14:24.463Z,75.00
2019-04-29T10:17:00.259Z,76.40
2019-04-29T10:19:39.772Z,77.50
2019-04-29T10:22:08.263Z,80.20
2019-04-29T10:24:36.704Z,77.80
2019-04-29T10:27:07.235Z,78.60
2019-04-29T10:29:36.180Z,80.30
2019-04-29T10:32:06.820Z,81.00
2019-04-29T10:34:35.945Z,82.00
2019-04-29T10:37:04.439Z,81.30
2019-04-29T10:46:06.813Z,84.80
2019-04-29T10:48:47.998Z,84.60
2019-04-29T10:51:58.027Z,83.70
2019-04-29T10:54:24.810Z,85.10
2019-04-29T10:56:53.294Z,85.70
2019-04-29T10:59:35.559Z,86.40
2019-04-29T11:02:14.321Z,84.60
2019-04-29T11:04:44.897Z,82.40
2019-04-29T11:07:19.162Z,82.40
2019-04-29T11:09:50.703Z,83.70
2019-04-29T11:12:19.928Z,84.10
2019-04-29T11:22:16.570Z,84.70
2019-04-29T11:24:46.663Z,85.70
2019-04-29T11:27:19.737Z,86.80
2019-04-29T11:29:48.333Z,88.40
2019-04-29T11:32:18.533Z,88.30
2019-04-29T11:34:57.747Z,89.30
2019-04-29T11:37:26.238Z,89.30
2019-04-29T11:39:57.121Z,89.20
2019-04-29T11:42:25.176Z,90.50
2019-04-29T11:44:57.247Z,90.30
2019-04-29T11:47:25.115Z,90.00
2019-04-29T11:49:58.375Z,88.10
2019-04-29T11:52:28.099Z,88.10
2019-04-29T11:54:57.102Z,86.00
2019-04-29T11:57:40.138Z,86.00
2019-04-29T12:00:04.637Z,88.90
2019-04-29T12:02:45.251Z,88.50
2019-04-29T12:05:24.749Z,90.40
2019-04-29T12:07:53.329Z,90.10
2019-04-29T12:10:21.825Z,90.20
2019-04-29T12:12:50.431Z,89.60
2019-04-29T12:15:23.472Z,89.30
2019-04-29T12:18:05.948Z,90.10
2019-04-29T12:20:41.821Z,89.00
2019-04-29T12:23:11.081Z,89.20
2019-04-29T12:25:40.607Z,89.40
2019-04-29T12:28:18.980Z,90.10
2019-04-29T12:30:41.328Z,90.60
2019-04-29T12:33:14.442Z,90.20
2019-04-29T12:35:52.046Z,90.40
2019-04-29T12:38:40.164Z,90.60
2019-04-29T12:41:29.669Z,90.70
2019-04-29T12:43:59.565Z,90.40
2019-04-29T12:46:31.567Z,91.40
2019-04-29T12:49:03.673Z,92.30
2019-04-29T12:51:30.237Z,92.40
2019-04-29T12:53:58.716Z,92.60
2019-04-29T12:56:34.839Z,92.50
2019-04-29T12:59:03.428Z,92.60
2019-04-29T13:01:50.990Z,93.10
2019-04-29T13:04:05.422Z,93.00
2019-04-29T13:06:39.682Z,93.10
2019-04-29T13:09:26.287Z,93.50
2019-04-29T13:12:05.120Z,92.80
2019-04-29T13:14:28.616Z,92.20
2019-04-29T13:16:58.306Z,93.20
2019-04-29T13:19:29.681Z,92.20
2019-04-29T13:21:58.483Z,92.20
2019-04-29T13:24:27.149Z,92.80
2019-04-29T13:26:55.801Z,91.50
2019-04-29T13:29:27.168Z,92.10
2019-04-29T13:31:54.391Z,91.30
2019-04-29T13:34:24.924Z,91.80
2019-04-29T13:37:06.541Z,91.90
2019-04-29T13:39:39.087Z,91.20
2019-04-29T13:41:57.697Z,91.50
2019-04-29T13:44:25.087Z,93.10
2019-04-29T13:47:11.465Z,93.40
2019-04-29T13:49:41.527Z,94.20
2019-04-29T13:52:10.641Z,93.90
2019-04-29T13:54:42.453Z,93.50
2019-04-29T13:57:15.662Z,93.80
2019-04-29T13:59:57.884Z,93.80
2019-04-29T14:02:32.262Z,94.00
2019-04-29T14:05:00.357Z,94.10
2019-04-29T14:07:29.838Z,94.50
2019-04-29T14:09:58.274Z,94.30
2019-04-29T14:12:47.645Z,94.30
2019-04-29T14:14:58.565Z,94.40
2019-04-29T14:17:31.440Z,94.00
2019-04-29T14:19:57.191Z,94.70
2019-04-29T14:22:25.714Z,94.70
2019-04-29T14:24:54.166Z,93.70
2019-04-29T14:27:25.014Z,93.50
2019-04-29T14:29:52.736Z,93.10
2019-04-29T14:32:33.238Z,93.30
2019-04-29T14:35:11.952Z,92.90
2019-04-29T14:37:54.512Z,92.80
2019-04-29T14:40:11.634Z,92.30
2019-04-29T14:42:57.561Z,93.20
2019-04-29T14:45:22.505Z,93.50
2019-04-29T14:47:55.506Z,94.30
2019-04-29T14:50:23.943Z,94.20
2019-04-29T14:52:52.428Z,94.60
2019-04-29T14:55:25.415Z,93.60
2019-04-29T14:57:50.971Z,94.40
2019-04-29T15:00:21.286Z,95.10
2019-04-29T15:02:49.816Z,95.50
2019-04-29T15:05:19.117Z,95.40
2019-04-29T15:07:47.585Z,95.50
2019-04-29T15:10:16.058Z,95.80
2019-04-29T15:13:11.552Z,96.10
2019-04-29T15:15:46.227Z,95.20
2019-04-29T15:18:20.255Z,94.40
2019-04-29T15:20:56.415Z,93.90
2019-04-29T15:23:29.325Z,93.70
2019-04-29T15:25:54.337Z,94.60
2019-04-29T15:28:28.135Z,94.90
2019-04-29T15:30:59.087Z,94.60
2019-04-29T15:33:30.527Z,94.90
2019-04-29T15:36:01.630Z,96.00
2019-04-29T15:38:30.348Z,95.60
2019-04-29T15:40:59.952Z,94.90
2019-04-29T15:43:46.531Z,95.70
2019-04-29T15:45:59.315Z,94.60
2019-04-29T15:48:28.015Z,94.90
2019-04-29T15:50:56.452Z,94.70
2019-04-29T15:53:24.937Z,95.30
2019-04-29T15:56:06.167Z,97.00
2019-04-29T15:58:27.628Z,96.50
2019-04-29T16:01:11.653Z,95.80
2019-04-29T16:03:25.792Z,95.60
2019-04-29T16:06:19.884Z,95.30
2019-04-29T16:08:49.558Z,94.90
2019-04-29T16:11:36.161Z,95.50
2019-04-29T16:14:10.142Z,95.20
2019-04-29T16:16:36.415Z,96.90
2019-04-29T16:19:08.155Z,95.60
2019-04-29T16:21:39.493Z,96.90
2019-04-29T16:24:24.783Z,96.60
2019-04-29T16:26:35.213Z,95.70
2019-04-29T16:29:12.282Z,95.30
2019-04-29T16:31:33.776Z,95.10
2019-04-29T16:34:02.238Z,94.90
2019-04-29T16:36:30.938Z,95.10
2019-04-29T16:39:01.013Z,95.90
2019-04-29T16:41:33.909Z,96.70
2019-04-29T16:44:02.433Z,95.90
2019-04-29T16:46:40.603Z,95.60
2019-04-29T16:49:07.596Z,95.40
2019-04-29T16:51:36.042Z,95.20
2019-04-29T16:54:04.578Z,95.30
2019-04-29T16:56:33.288Z,95.10
2019-04-29T16:59:08.972Z,95.90
2019-04-29T17:01:41.915Z,95.40
2019-04-29T17:04:10.383Z,95.30
2019-04-29T17:07:14.803Z,95.20
2019-04-29T17:09:47.937Z,96.00
2019-04-29T17:12:16.375Z,96.10
2019-04-29T17:15:03.108Z,95.90
2019-04-29T17:17:16.713Z,95.70
2019-04-29T17:19:45.226Z,95.60
2019-04-29T17:22:25.593Z,96.90
2019-04-29T17:24:45.865Z,97.30
2019-04-29T17:27:35.043Z,96.70
2019-04-29T17:30:20.801Z,97.20
2019-04-29T17:33:09.823Z,97.10
2019-04-29T17:35:46.883Z,98.00
2019-04-29T17:38:10.800Z,99.00
2019-04-29T17:40:50.619Z,98.90
2019-04-29T17:43:12.631Z,98.70
2019-04-29T17:46:01.869Z,99.20
2019-04-29T17:48:32.874Z,98.70
2019-04-29T17:51:04.292Z,98.50
2019-04-29T17:53:47.339Z,98.70
2019-04-29T17:56:21.366Z,98.10
2019-04-29T17:58:54.764Z,98.00
2019-04-29T18:01:26.655Z,98.60
2019-04-29T18:04:00.281Z,97.80
2019-04-29T18:06:30.913Z,98.80
2019-04-29T18:09:04.960Z,98.80
2019-04-29T18:11:34.153Z,98.20
2019-04-29T18:14:06.503Z,98.70
2019-04-29T18:16:35.344Z,99.10
2019-04-29T18:19:05.842Z,99.70
2019-04-29T18:21:47.354Z,99.90
2019-04-29T18:24:20.108Z,99.90
2019-04-29T18:26:57.654Z,99.90
2019-04-29T18:29:26.440Z,99.90
2019-04-29T18:31:56.135Z,99.90
2019-04-29T18:34:25.302Z,99.90
2019-04-29T18:37:00.176Z,99.90
2019-04-29T18:39:28.569Z,99.90
2019-04-29T18:41:58.736Z,99.90
2019-04-29T18:44:27.081Z,99.40
2019-04-29T18:46:57.329Z,99.30
2019-04-29T18:49:25.933Z,99.10
2019-04-29T18:51:57.888Z,99.50
2019-04-29T18:54:27.069Z,99.50
2019-04-29T18:56:57.524Z,99.40
2019-04-29T18:59:33.386Z,99.40
2019-04-29T19:02:00.856Z,99.40
2019-04-29T19:04:29.683Z,99.50
2019-04-29T19:07:05.435Z,99.90
2019-04-29T19:09:40.365Z,99.90
2019-04-29T19:12:09.827Z,99.70
2019-04-29T19:14:38.911Z,99.90
2019-04-29T19:17:09.133Z,99.90
2019-04-29T19:19:39.448Z,99.90
2019-04-29T19:22:10.045Z,99.90
2019-04-29T19:24:40.555Z,99.90
2019-04-29T19:27:11.348Z,99.90
2019-04-29T19:29:45.538Z,99.90
2019-04-29T19:32:18.910Z,99.90
2019-04-29T19:34:50.035Z,99.90
2019-04-29T19:37:19.874Z,99.90
2019-04-29T19:39:52.490Z,99.90
2019-04-29T19:42:29.018Z,99.90
2019-04-29T19:44:50.136Z,99.90
2019-04-29T19:47:19.402Z,99.90
2019-04-29T19:49:49.441Z,99.90
2019-04-29T19:52:28.097Z,99.90
2019-04-29T19:54:48.996Z,99.90
2019-04-29T19:57:18.111Z,99.90
2019-04-29T19:59:52.047Z,99.90
2019-04-29T20:02:19.231Z,99.90
2019-04-29T20:04:52.359Z,99.90
2019-04-29T20:07:21.266Z,99.90
2019-04-29T20:10:00.014Z,99.90
2019-04-29T20:12:22.818Z,99.90
2019-04-29T20:15:19.563Z,99.80
2019-04-29T20:21:08.606Z,99.90
2019-04-29T20:23:36.990Z,99.90
2019-04-29T20:26:13.838Z,99.90
2019-04-29T20:28:37.145Z,99.90
2019-04-29T20:31:16.440Z,99.90
2019-04-29T20:33:42.199Z,99.90
2019-04-29T20:36:08.777Z,99.90
2019-04-29T20:38:39.242Z,99.90
2019-04-29T20:41:12.987Z,99.90
2019-04-29T20:43:39.626Z,99.90
2019-04-29T20:46:10.323Z,99.90
2019-04-29T20:48:40.021Z,99.90
2019-04-29T20:51:14.169Z,99.90
2019-04-29T20:53:48.813Z,99.90
2019-04-29T20:56:27.544Z,99.90
2019-04-29T20:58:50.946Z,99.90
2019-04-29T21:01:21.297Z,99.90
2019-04-29T21:03:54.722Z,99.90
2019-04-29T21:06:22.833Z,99.90
2019-04-29T21:08:52.258Z,99.90
2019-04-29T21:11:25.690Z,99.90
2019-04-29T21:14:15.616Z,99.90
2019-04-29T21:16:46.341Z,99.90
2019-04-29T21:19:15.646Z,99.90
2019-04-29T21:21:47.352Z,99.90
2019-04-29T21:24:18.552Z,99.90
2019-04-29T21:26:46.021Z,99.90
2019-04-29T21:29:19.237Z,99.90
2019-04-29T21:31:46.132Z,99.90
2019-04-29T21:34:17.448Z,99.90
2019-04-29T21:36:51.121Z,99.90
2019-04-29T21:39:25.186Z,99.90
2019-04-29T21:44:36.995Z,99.90
2019-04-29T21:47:08.016Z,99.90
2019-04-29T21:49:44.892Z,99.90
2019-04-29T21:52:09.427Z,99.90
2019-04-29T21:54:38.485Z,99.90
2019-04-29T22:05:18.269Z,99.90
2019-04-29T22:07:47.437Z,99.90
2019-04-29T22:10:45.158Z,99.90
2019-04-29T22:13:25.465Z,99.90
2019-04-29T22:23:13.149Z,99.90
2019-04-29T22:25:45.696Z,99.90
2019-04-29T22:29:09.009Z,99.90
2019-04-29T22:31:39.427Z,99.60
2019-04-29T22:34:27.741Z,99.80
2019-04-29T22:36:59.113Z,99.70
2019-04-29T22:39:30.226Z,99.60
2019-04-29T22:42:12.977Z,99.40
2019-04-29T22:44:42.306Z,98.70
2019-04-29T22:47:11.403Z,97.90
2019-04-29T22:49:49.436Z,97.80
2019-04-29T22:52:18.436Z,98.70
2019-04-29T22:54:47.286Z,99.10
2019-04-29T22:57:16.238Z,99.10
2019-04-29T22:59:45.462Z,99.70
2019-04-29T23:02:15.789Z,99.50
2019-04-29T23:04:47.222Z,99.60
2019-04-29T23:07:17.789Z,99.70
2019-04-29T23:09:48.202Z,99.50
2019-04-29T23:12:18.806Z,99.50
2019-04-29T23:14:47.535Z,99.00
2019-04-29T23:17:16.411Z,98.10
2019-04-29T23:19:50.638Z,97.60
2019-04-29T23:22:22.029Z,97.10
2019-04-29T23:24:57.446Z,97.20
2019-04-29T23:27:26.525Z,97.10
2019-04-29T23:29:55.504Z,97.20
2019-04-29T23:32:26.378Z,97.20
2019-04-29T23:34:57.122Z,97.70
2019-04-29T23:37:29.155Z,97.70
2019-04-29T23:39:56.406Z,97.20
2019-04-29T23:42:26.085Z,96.80
2019-04-29T23:44:57.068Z,96.60
2019-04-29T23:47:25.885Z,96.70
2019-04-29T23:49:55.516Z,96.40
2019-04-29T23:52:26.970Z,96.20
2019-04-29T23:54:55.946Z,96.30
2019-04-29T23:57:42.775Z,96.00
